メインページ
METAR-TAF:

METAR-TAF

空港 :

イスタンブル-アタテュルク, トルコ

アタテュルク国際空港

緯度: 40-58N, 経度: 028-49E, 海抜: 48m

現時点の気象観測

当レポートは35分前の20:20(UTC)に作成
南西の風 15kt
気温 14°C
湿度 77%
気圧 1022 hPa
視程10km以上
1,500メートル以下は雲なし、積乱雲なし

METAR: LTBA 112020Z 23015KT CAVOK 14/10 Q1022 NOSIG RMK RWY17L 23014KT RWY05 23014KT RWY23 25015KT

時間: 23:55 (20:55 UTC)

予報

当レポートは4時間15分前の16:40(UTC)に作成
予報は11日の 18時(UTC)から 12日の 24時(UTC)まで有効
南西の風 15kt
視程10km以上
1,500メートル以下は雲なし、積乱雲なし
11日の 19時(UTC)から 11日の 23時(UTC)まで一時的に
南西の風 15kt、最大25ktの突風を伴う
12日の 07時(UTC)から 12日の 11時(UTC)まで徐々に
高度2500ftの雲はほとんどない
高度10000ftの千切れ雲あり

TAF: LTBA 111640Z 1118/1224 22015KT CAVOK TEMPO 1119/1123 22015G25KT BECMG 1207/1211 FEW025 BKN100

4,000以上の空港の気象観測と天気予報(METAR報とTAF報)

利用可能な観測所は地図上に黄色い丸と赤い丸で示す。

丸の上にカーソルを重ねると観測所名を参照できる。

次にクリックすると気象観測と天気予報を参照できる。

マップの切り替え:黒色「×」印の緑ボタンをクリックして拡大、「-」印の緑ボタンをクリックして縮小、緑色の三角印をクリックして隣りの地図に切り替え


METAR-TAF: